Time;durP1;ratioP1;P1;durP2;ratioP2;P2;SDS_P1;SDS_P2;PMS_P1;PMS_P2;Temp;Humidity;BMP_temperature;BMP_pressure;BME280_temperature;BME280_humidity;BME280_pressure;Samples;Min_cycle;Max_cycle;Signal;HPM_P1;HPM_P2
2022/11/25 00:02:58;;;;;;;42.45;23.85;;;;;;;9.72;87.42;99521.73;1659760;86;21243;-74
2022/11/25 00:06:03;;;;;;;50.43;26.02;;;;;;;10.06;86.12;99529.81;1658740;86;21766;-75
2022/11/25 00:09:12;;;;;;;48.25;29.82;;;;;;;9.80;86.75;99539.06;1660026;86;21310;-75
2022/11/25 00:12:18;;;;;;;43.83;28.17;;;;;;;9.75;86.91;99539.63;1659856;86;21207;-75
2022/11/25 00:15:23;;;;;;;58.80;33.58;;;;;;;10.02;86.24;99539.45;1659282;86;21215;-75
2022/11/25 00:18:28;;;;;;;52.48;29.10;;;;;;;9.92;86.29;99543.83;1659522;86;21239;-75
2022/11/25 00:21:30;;;;;;;41.00;23.80;;;;;;;9.89;86.48;99538.77;1660116;86;21264;-75
2022/11/25 00:24:36;;;;;;;45.15;24.60;;;;;;;9.88;86.65;99537.08;1660881;86;21188;-75
2022/11/25 00:27:41;;;;;;;53.00;25.80;;;;;;;10.01;86.16;99538.27;1660366;86;21211;-76
2022/11/25 00:30:47;;;;;;;46.20;24.27;;;;;;;9.87;86.53;99538.09;1660000;86;21219;-75
2022/11/25 00:33:53;;;;;;;40.48;23.85;;;;;;;9.71;87.43;99535.06;1659345;86;21242;-76
2022/11/25 00:36:59;;;;;;;41.77;23.73;;;;;;;9.78;87.44;99524.73;1659901;86;21208;-75
2022/11/25 00:40:06;;;;;;;53.63;26.12;;;;;;;9.67;87.63;99515.15;1659961;86;21259;-75
2022/11/25 00:46:35;;;;;;;42.98;25.15;;;;;;;9.77;86.50;99527.98;1658677;86;21235;-78
2022/11/25 00:49:42;;;;;;;41.28;24.67;;;;;;;9.78;87.11;99513.28;1658756;85;21233;-76
2022/11/25 00:52:49;;;;;;;44.08;23.85;;;;;;;9.72;87.27;99507.23;1656923;86;21194;-76
2022/11/25 00:56:14;;;;;;;47.25;24.72;;;;;;;9.78;86.96;99496.05;1656136;86;21216;-75
2022/11/25 00:59:20;;;;;;;52.65;24.32;;;;;;;9.68;87.42;99502.66;1656840;86;21211;-75
2022/11/25 01:02:25;;;;;;;38.80;22.20;;;;;;;9.60;87.93;99495.11;1656794;86;21203;-76
2022/11/25 01:05:31;;;;;;;45.55;25.10;;;;;;;9.64;87.87;99492.30;1655453;86;21778;-76
2022/11/25 01:08:39;;;;;;;58.65;27.42;;;;;;;9.61;87.83;99488.61;1656827;86;21553;-76
2022/11/25 01:11:45;;;;;;;43.55;26.62;;;;;;;9.60;87.52;99486.92;1656580;86;21219;-76
2022/11/25 01:14:50;;;;;;;46.98;25.88;;;;;;;9.57;87.75;99484.56;1656774;86;21271;-76
2022/11/25 01:17:58;;;;;;;47.75;25.35;;;;;;;9.71;86.90;99487.80;1655676;86;21195;-76
2022/11/25 01:21:20;;;;;;;52.10;25.25;;;;;;;9.80;86.18;99478.45;1656865;86;21203;-76
2022/11/25 01:24:26;;;;;;;43.02;23.83;;;;;;;9.45;86.86;99491.00;1655684;86;21774;-76
2022/11/25 01:27:33;;;;;;;51.18;25.50;;;;;;;9.51;87.00;99498.98;1655627;86;21215;-76
2022/11/25 01:30:38;;;;;;;42.45;24.60;;;;;;;9.52;86.61;99481.55;1656958;86;22480;-76
2022/11/25 01:33:44;;;;;;;48.33;25.10;;;;;;;9.60;85.70;99474.64;1656845;86;21200;-76
2022/11/25 01:36:51;;;;;;;51.25;25.05;;;;;;;9.46;86.06;99473.61;1655745;86;21188;-77
2022/11/25 01:39:57;;;;;;;50.05;25.43;;;;;;;9.64;85.65;99486.84;1656885;86;21810;-77
2022/11/25 01:43:03;;;;;;;39.92;24.23;;;;;;;9.79;84.95;99484.96;1656936;86;21834;-77
2022/11/25 01:46:17;;;;;;;50.23;26.70;;;;;;;9.43;85.81;99495.30;1656563;86;21319;-76
2022/11/25 01:49:36;;;;;;;48.63;25.40;;;;;;;9.38;85.93;99492.29;1622662;86;21236;-77
2022/11/25 01:52:49;;;;;;;45.00;24.23;;;;;;;9.26;86.61;99503.85;1656908;85;21778;-76
2022/11/25 01:56:04;;;;;;;52.17;25.10;;;;;;;9.51;84.92;99509.90;1657465;86;21374;-76
2022/11/25 01:59:10;;;;;;;41.58;22.73;;;;;;;9.39;85.44;99508.98;1657604;86;21207;-75
2022/11/25 02:02:17;;;;;;;48.30;23.70;;;;;;;9.11;86.87;99504.69;1657579;86;21259;-76
2022/11/25 02:05:30;;;;;;;42.43;22.70;;;;;;;9.02;87.14;99513.14;1657048;86;21247;-76
2022/11/25 02:08:35;;;;;;;43.23;23.18;;;;;;;9.14;87.10;99517.12;1657513;86;21319;-77
2022/11/25 02:11:45;;;;;;;44.95;24.55;;;;;;;9.23;86.35;99513.28;1657673;86;21751;-75
2022/11/25 02:14:54;;;;;;;42.75;23.47;;;;;;;9.05;86.63;99512.27;1657709;86;21216;-75
2022/11/25 02:18:01;;;;;;;46.53;24.35;;;;;;;9.23;86.10;99510.55;1657617;86;21802;-75
2022/11/25 02:21:08;;;;;;;47.83;24.63;;;;;;;9.16;85.76;99508.22;1656619;86;21287;-75
2022/11/25 02:24:26;;;;;;;47.83;26.07;;;;;;;9.17;86.18;99502.60;1657649;86;21806;-76
2022/11/25 02:27:32;;;;;;;49.27;26.23;;;;;;;9.02;86.05;99515.34;1656612;86;21287;-76
2022/11/25 02:30:40;;;;;;;42.53;23.83;;;;;;;8.79;87.18;99513.19;1657631;86;21279;-76
2022/11/25 02:33:40;;;;;;;52.03;24.55;;;;;;;8.96;86.66;99516.95;1657632;86;21263;-77
2022/11/25 02:36:46;;;;;;;51.53;24.65;;;;;;;9.01;86.49;99518.27;1656911;86;21243;-76
2022/11/25 02:39:52;;;;;;;49.75;24.77;;;;;;;9.11;86.11;99514.76;1657626;86;21204;-75
2022/11/25 02:42:57;;;;;;;43.52;25.60;;;;;;;9.14;86.09;99514.39;1657611;86;21215;-76
2022/11/25 02:46:09;;;;;;;47.75;24.72;;;;;;;9.11;85.90;99513.39;1657546;86;21211;-75
2022/11/25 02:49:17;;;;;;;46.15;24.27;;;;;;;9.01;86.14;99519.64;1656394;86;21200;-76
2022/11/25 02:55:34;;;;;;;48.63;24.82;;;;;;;8.89;86.48;99526.04;1677063;84;21226;-75
2022/11/25 02:58:40;;;;;;;51.63;24.10;;;;;;;9.34;85.32;99534.64;1678097;85;21198;-74
2022/11/25 03:01:49;;;;;;;44.90;22.95;;;;;;;9.68;83.75;99537.31;1678213;85;21203;-76
2022/11/25 03:04:55;;;;;;;44.45;24.75;;;;;;;9.58;82.97;99534.03;1676891;85;21751;-76
2022/11/25 03:08:01;;;;;;;44.23;22.87;;;;;;;9.95;81.68;99530.31;1707162;84;21253;-78
2022/11/25 03:11:07;;;;;;;44.03;23.57;;;;;;;10.20;80.42;99532.19;1707998;84;21190;-77
2022/11/25 03:14:13;;;;;;;43.40;22.50;;;;;;;9.75;82.65;99536.90;1709287;84;21202;-77
2022/11/25 03:17:20;;;;;;;50.52;25.65;;;;;;;9.62;83.03;99539.45;1709149;84;21206;-76
2022/11/25 03:20:26;;;;;;;41.60;23.45;;;;;;;9.52;83.69;99537.00;1709188;84;21871;-76
2022/11/25 03:23:32;;;;;;;45.83;23.15;;;;;;;9.26;83.55;99529.25;1708252;84;21257;-77
2022/11/25 03:26:37;;;;;;;47.53;24.27;;;;;;;9.31;84.00;99522.72;1708042;84;21182;-76
2022/11/25 03:29:43;;;;;;;42.17;23.80;;;;;;;9.28;84.80;99519.02;1709331;84;21202;-76
2022/11/25 03:32:48;;;;;;;45.52;24.40;;;;;;;9.06;85.03;99511.74;1709367;84;21214;-76
2022/11/25 03:35:55;;;;;;;41.92;22.77;;;;;;;9.20;85.05;99510.39;1708163;84;21245;-74
2022/11/25 03:39:00;;;;;;;41.73;25.82;;;;;;;8.94;85.42;99513.57;1708049;84;21217;-76
2022/11/25 03:42:06;;;;;;;45.23;25.23;;;;;;;8.93;85.43;99512.38;1709487;84;22468;-75
2022/11/25 03:45:07;;;;;;;41.65;23.00;;;;;;;8.87;85.61;99501.69;1709408;84;21202;-75
2022/11/25 03:48:01;;;;;;;42.98;23.47;;;;;;;9.48;83.70;99516.57;1708575;84;21245;-77
2022/11/25 03:50:49;;;;;;;44.70;24.07;;;;;;;9.38;82.91;99517.38;1709312;84;21250;-76
2022/11/25 03:53:48;;;;;;;48.65;25.37;;;;;;;9.45;82.67;99523.23;1708952;84;21234;-77
2022/11/25 03:56:55;;;;;;;42.67;23.73;;;;;;;10.00;81.61;99511.47;1707818;84;21214;-76
2022/11/25 04:00:01;;;;;;;48.78;24.23;;;;;;;9.62;79.16;99514.34;1709343;84;21807;-76
2022/11/25 04:03:17;;;;;;;46.30;22.40;;;;;;;9.54;83.63;99528.09;1709315;84;21246;-77
2022/11/25 04:06:22;;;;;;;42.80;22.20;;;;;;;10.30;78.65;99532.75;1708863;84;21245;-76
2022/11/25 04:09:30;;;;;;;47.75;21.95;;;;;;;9.41;82.16;99534.23;1707879;84;21214;-77
2022/11/25 04:12:47;;;;;;;44.20;23.85;;;;;;;9.69;81.72;99532.17;1707851;84;21198;-76
2022/11/25 04:15:56;;;;;;;50.33;24.05;;;;;;;9.25;82.99;99525.36;1709246;84;21195;-76
2022/11/25 04:19:02;;;;;;;45.92;21.65;;;;;;;8.90;84.60;99520.42;1687978;84;21209;-76
2022/11/25 04:22:09;;;;;;;46.37;23.02;;;;;;;8.74;85.18;99511.53;1709264;84;21199;-75
2022/11/25 04:25:15;;;;;;;49.42;23.40;;;;;;;8.38;86.84;99508.09;1708182;84;21827;-76
2022/11/25 04:28:21;;;;;;;41.37;23.85;;;;;;;8.37;86.65;99505.00;1708811;84;21812;-76
2022/11/25 04:31:27;;;;;;;42.10;21.85;;;;;;;8.45;87.25;99511.25;1709271;84;21202;-76
2022/11/25 04:34:33;;;;;;;56.15;26.05;;;;;;;8.22;87.88;99510.88;1709259;84;21202;-76
2022/11/25 04:37:38;;;;;;;54.35;25.15;;;;;;;8.14;89.00;99507.20;1709250;84;21250;-77
2022/11/25 04:40:44;;;;;;;45.30;22.98;;;;;;;8.14;89.71;99504.98;1708249;84;21912;-75
2022/11/25 04:43:51;;;;;;;49.18;23.62;;;;;;;8.46;87.69;99506.64;1709272;84;21250;-76
2022/11/25 04:46:59;;;;;;;43.00;23.73;;;;;;;8.24;88.15;99508.84;1709342;84;21249;-76
2022/11/25 04:50:05;;;;;;;54.20;24.43;;;;;;;8.44;87.45;99516.89;1707902;84;21242;-76
2022/11/25 04:53:21;;;;;;;49.13;22.65;;;;;;;8.51;86.91;99527.90;1709432;84;21205;-75
2022/11/25 04:56:27;;;;;;;46.18;22.75;;;;;;;8.54;86.86;99527.55;1710520;82;21264;-76
2022/11/25 04:59:39;;;;;;;47.03;22.45;;;;;;;8.60;85.87;99544.00;1711309;84;21253;-76
2022/11/25 05:02:46;;;;;;;45.63;22.42;;;;;;;8.41;86.90;99545.34;1710868;84;21246;-75
2022/11/25 05:05:52;;;;;;;42.60;22.27;;;;;;;8.49;86.46;99559.44;1712004;84;21202;-76
2022/11/25 05:08:59;;;;;;;45.20;22.35;;;;;;;8.54;86.49;99569.80;1710672;84;21237;-75
2022/11/25 05:12:01;;;;;;;45.30;21.73;;;;;;;8.73;85.64;99561.13;1710749;84;21202;-76
2022/11/25 05:14:53;;;;;;;41.80;21.48;;;;;;;8.62;85.63;99565.66;1712131;84;21313;-76
2022/11/25 05:17:39;;;;;;;45.65;22.55;;;;;;;8.89;84.81;99550.09;1712099;84;21194;-76
2022/11/25 05:20:46;;;;;;;46.90;22.13;;;;;;;8.56;85.29;99559.55;1710833;84;22553;-76
2022/11/25 05:23:51;;;;;;;40.25;21.57;;;;;;;8.74;85.13;99560.09;1712111;84;21316;-76
2022/11/25 05:26:57;;;;;;;40.73;21.90;;;;;;;8.81;85.31;99566.52;1710645;83;21217;-76
2022/11/25 05:30:03;;;;;;;37.23;20.37;;;;;;;8.64;85.33;99573.97;1711162;84;21293;-76
2022/11/25 05:33:09;;;;;;;50.73;22.07;;;;;;;8.57;86.07;99570.80;1712003;84;21737;-76
2022/11/25 05:36:17;;;;;;;53.38;20.82;;;;;;;8.88;84.91;99570.20;1712021;84;21198;-76
2022/11/25 05:39:24;;;;;;;39.67;19.90;;;;;;;8.63;85.18;99587.27;1711653;84;21210;-76
2022/11/25 05:42:39;;;;;;;40.85;19.70;;;;;;;8.76;85.10;99588.04;1712135;84;21265;-76
2022/11/25 05:45:45;;;;;;;40.43;20.17;;;;;;;8.87;84.00;99590.33;1711954;84;21202;-75
2022/11/25 05:48:51;;;;;;;47.23;21.75;;;;;;;8.52;85.65;99589.58;1710541;84;21776;-76
2022/11/25 05:51:57;;;;;;;34.63;18.55;;;;;;;8.56;85.66;99591.77;1711945;84;21206;-76
2022/11/25 05:55:04;;;;;;;39.23;20.40;;;;;;;8.78;84.77;99596.87;1711809;84;21756;-76
2022/11/25 05:58:11;;;;;;;33.23;18.25;;;;;;;9.10;83.44;99604.46;1682084;84;21233;-75
2022/11/25 06:01:19;;;;;;;38.17;19.67;;;;;;;8.95;83.07;99618.91;1709045;84;21194;-76
2022/11/25 06:04:24;;;;;;;39.00;19.60;;;;;;;8.73;83.84;99617.02;1709234;84;21194;-76
2022/11/25 06:07:30;;;;;;;39.20;21.00;;;;;;;9.27;81.93;99622.39;1707329;84;21221;-76
2022/11/25 06:10:36;;;;;;;35.98;19.62;;;;;;;9.74;79.55;99621.23;1708393;84;21254;-75
2022/11/25 06:13:43;;;;;;;37.40;19.60;;;;;;;9.91;79.03;99626.82;1709199;84;21245;-77
2022/11/25 06:16:49;;;;;;;35.17;18.02;;;;;;;9.33;80.70;99623.02;1709386;84;21800;-76
2022/11/25 06:19:57;;;;;;;37.95;19.92;;;;;;;9.52;79.77;99624.36;1707888;84;21772;-77
2022/11/25 06:23:04;;;;;;;37.25;18.70;;;;;;;9.16;81.52;99625.55;1709162;84;21447;-76
2022/11/25 06:26:22;;;;;;;43.00;20.55;;;;;;;8.91;82.51;99627.11;1709089;84;21214;-76
2022/11/25 06:29:29;;;;;;;36.30;19.20;;;;;;;8.98;82.20;99616.83;1709011;84;21190;-76
2022/11/25 06:32:36;;;;;;;34.63;20.35;;;;;;;9.12;81.65;99616.88;1680629;83;28209;-77
2022/11/25 06:35:40;;;;;;;36.23;20.05;;;;;;;9.01;81.97;99617.32;1661060;85;21272;-77
2022/11/25 06:38:45;;;;;;;35.88;18.30;;;;;;;9.00;82.09;99618.36;1645856;87;21861;-77
2022/11/25 06:41:51;;;;;;;34.85;18.73;;;;;;;9.04;82.33;99617.48;1617655;88;21269;-77
2022/11/25 06:44:58;;;;;;;37.35;19.30;;;;;;;8.73;83.44;99619.75;1645530;87;21269;-77
2022/11/25 06:48:05;;;;;;;35.63;17.30;;;;;;;9.19;82.37;99621.94;1646082;87;21212;-77
2022/11/25 06:51:14;;;;;;;35.85;17.60;;;;;;;9.08;81.84;99623.75;1618711;87;21283;-76
2022/11/25 06:54:20;;;;;;;31.07;17.17;;;;;;;9.46;81.20;99625.96;1675931;84;21179;-76
2022/11/25 06:57:26;;;;;;;34.43;17.87;;;;;;;9.34;81.23;99626.06;1617409;86;21280;-76
2022/11/25 07:00:32;;;;;;;28.60;16.10;;;;;;;9.90;79.73;99623.77;1661375;86;21206;-78
2022/11/25 07:03:38;;;;;;;31.70;16.60;;;;;;;9.95;78.87;99624.56;1667251;85;21192;-76
2022/11/25 07:06:45;;;;;;;31.57;17.35;;;;;;;10.00;78.75;99630.31;1679379;85;21248;-77
2022/11/25 07:09:51;;;;;;;33.50;17.00;;;;;;;10.17;78.16;99635.07;1661539;86;21176;-77
2022/11/25 07:12:58;;;;;;;33.45;17.23;;;;;;;10.59;76.67;99619.84;1673071;85;21264;-76
2022/11/25 07:16:05;;;;;;;36.28;16.42;;;;;;;10.11;77.45;99634.44;1672438;84;21231;-76
2022/11/25 07:19:11;;;;;;;31.85;15.88;;;;;;;9.79;78.45;99626.98;1661045;86;21184;-76
2022/11/25 07:22:17;;;;;;;34.58;16.62;;;;;;;9.89;78.06;99630.80;1661066;86;21671;-75
2022/11/25 07:25:17;;;;;;;29.18;17.02;;;;;;;9.55;78.83;99629.95;1679495;85;21247;-75
2022/11/25 07:28:24;;;;;;;26.23;15.10;;;;;;;9.80;78.62;99622.36;1678731;85;21239;-76
2022/11/25 07:31:34;;;;;;;30.12;16.62;;;;;;;10.02;77.15;99626.02;1658495;84;118173;-76
2022/11/25 07:34:40;;;;;;;30.88;17.07;;;;;;;9.96;77.17;99633.93;1605689;89;21779;-77
2022/11/25 07:37:46;;;;;;;30.77;15.75;;;;;;;10.19;76.64;99639.30;1584393;89;21244;-76
2022/11/25 07:40:54;;;;;;;27.22;15.05;;;;;;;9.89;77.06;99641.20;1607583;89;21287;-76
2022/11/25 07:44:07;;;;;;;35.98;17.82;;;;;;;9.81;77.26;99652.73;1583477;89;21296;-76
2022/11/25 07:47:17;;;;;;;33.10;16.65;;;;;;;9.85;78.04;99644.50;1555266;92;21789;-77
2022/11/25 07:50:22;;;;;;;32.58;17.32;;;;;;;9.91;78.11;99641.84;1586453;88;21485;-77
2022/11/25 07:53:28;;;;;;;30.17;15.83;;;;;;;10.08;76.93;99644.41;1581871;88;21289;-76
2022/11/25 07:56:33;;;;;;;27.93;15.35;;;;;;;9.99;77.30;99637.66;1559263;92;21302;-76
2022/11/25 07:59:40;;;;;;;28.10;13.78;;;;;;;10.14;77.47;99636.80;1557788;90;21293;-77
2022/11/25 08:02:46;;;;;;;30.60;14.47;;;;;;;10.23;76.69;99645.23;1567403;91;21216;-77
2022/11/25 08:05:52;;;;;;;37.20;22.25;;;;;;;9.95;77.48;99651.89;1536452;91;21270;-78
2022/11/25 08:08:58;;;;;;;25.27;16.05;;;;;;;9.91;77.96;99651.93;1557277;91;21810;-77
2022/11/25 08:11:57;;;;;;;33.88;19.80;;;;;;;9.83;77.88;99657.47;1557013;92;21901;-77
2022/11/25 08:14:50;;;;;;;34.75;23.45;;;;;;;9.51;78.64;99664.98;1556312;92;21845;-77
2022/11/25 08:17:55;;;;;;;31.30;18.40;;;;;;;9.55;78.19;99669.53;1544178;92;21227;-77
2022/11/25 08:21:10;;;;;;;36.83;22.37;;;;;;;9.63;77.89;99676.30;1533242;92;21562;-78
2022/11/25 08:24:17;;;;;;;36.40;23.12;;;;;;;9.61;77.48;99672.91;1570884;90;21201;-77
2022/11/25 08:27:23;;;;;;;35.38;22.62;;;;;;;9.31;78.74;99655.08;1569942;91;21298;-78
2022/11/25 08:30:28;;;;;;;37.38;20.17;;;;;;;9.32;78.99;99663.63;1571948;89;21211;-76
2022/11/25 08:33:34;;;;;;;36.73;18.60;;;;;;;9.26;79.33;99678.50;1576681;89;21273;-78
2022/11/25 08:36:40;;;;;;;37.63;20.70;;;;;;;9.40;78.32;99678.54;1563912;91;21550;-77
2022/11/25 08:39:48;;;;;;;33.70;23.95;;;;;;;8.73;80.46;99678.89;1540268;92;21840;-75
2022/11/25 08:42:55;;;;;;;34.35;23.75;;;;;;;8.53;82.15;99675.77;1557644;92;21229;-74
2022/11/25 08:46:01;;;;;;;39.40;20.45;;;;;;;8.51;82.71;99682.73;1582923;89;21910;-77
2022/11/25 08:49:11;;;;;;;29.45;20.12;;;;;;;8.47;83.38;99675.09;1562025;91;21205;-77
2022/11/25 08:52:10;;;;;;;34.35;20.27;;;;;;;8.68;82.46;99684.36;1575359;89;21284;-78
2022/11/25 08:55:17;;;;;;;27.37;14.65;;;;;;;8.65;82.28;99675.69;1575312;90;21241;-78
2022/11/25 08:58:24;;;;;;;28.55;14.85;;;;;;;8.98;80.89;99681.77;1561521;91;21289;-77
2022/11/25 09:01:29;;;;;;;31.30;15.45;;;;;;;9.21;79.61;99679.05;1580751;89;21239;-77
2022/11/25 09:04:35;;;;;;;30.40;19.70;;;;;;;9.24;79.12;99680.06;1582758;90;21223;-77
2022/11/25 09:07:41;;;;;;;35.98;22.90;;;;;;;9.13;80.09;99689.53;1591547;89;21350;-77
2022/11/25 09:10:48;;;;;;;32.48;19.12;;;;;;;9.27;79.99;99686.52;1563352;90;21305;-76
2022/11/25 09:13:54;;;;;;;29.57;17.52;;;;;;;9.01;80.51;99691.48;1563922;90;21777;-77
2022/11/25 09:17:00;;;;;;;32.08;20.00;;;;;;;9.15;80.28;99692.06;1564383;91;21219;-77
2022/11/25 09:20:06;;;;;;;33.40;19.67;;;;;;;9.38;79.42;99687.96;1554801;90;21261;-78
2022/11/25 09:23:12;;;;;;;42.05;22.07;;;;;;;9.19;80.16;99686.06;1568033;91;21267;-78
2022/11/25 09:26:38;;;;;;;37.90;25.23;;;;;;;9.12;80.38;99685.59;1586167;90;21295;-76
2022/11/25 09:29:43;;;;;;;51.80;36.13;;;;;;;8.81;81.34;99683.78;1582585;90;21814;-76
2022/11/25 09:32:49;;;;;;;42.80;28.60;;;;;;;9.09;80.73;99684.62;1582099;89;21265;-75
2022/11/25 09:35:55;;;;;;;35.55;24.82;;;;;;;8.78;81.54;99685.49;1574252;90;21529;-77
2022/11/25 09:39:02;;;;;;;43.85;30.92;;;;;;;8.63;82.98;99674.51;1584335;90;21213;-76
2022/11/25 09:49:42;;;;;;;44.67;26.77;;;;;;;8.57;83.95;99673.87;1572774;89;21216;-76
2022/11/25 09:52:58;;;;;;;46.88;24.15;;;;;;;8.79;83.51;99672.19;1556236;92;21272;-77
2022/11/25 09:56:08;;;;;;;52.50;30.08;;;;;;;8.72;84.23;99665.77;1562348;92;21284;-76
2022/11/25 09:59:26;;;;;;;54.77;31.37;;;;;;;8.59;84.81;99671.80;1581131;90;21251;-76
2022/11/25 10:02:43;;;;;;;33.30;20.92;;;;;;;8.83;84.29;99663.98;1585673;90;21874;-75
2022/11/25 10:05:57;;;;;;;36.90;20.40;;;;;;;8.81;83.89;99660.60;1598135;89;21233;-76
2022/11/25 10:09:09;;;;;;;52.75;25.92;;;;;;;8.83;84.27;99661.25;1564667;91;21766;-75
2022/11/25 10:12:36;;;;;;;38.98;22.37;;;;;;;9.04;83.77;99665.22;1570607;91;21236;-75
2022/11/25 10:15:45;;;;;;;37.50;24.00;;;;;;;9.19;82.77;99658.78;1586248;90;21221;-76
2022/11/25 10:18:56;;;;;;;46.35;29.48;;;;;;;9.50;81.87;99656.96;1570855;91;21228;-76
2022/11/25 10:22:02;;;;;;;42.43;28.73;;;;;;;9.58;81.79;99659.62;1586934;90;21736;-76
2022/11/25 10:25:12;;;;;;;35.75;25.15;;;;;;;9.52;82.09;99663.10;1573814;90;21223;-76
2022/11/25 10:28:27;;;;;;;32.42;21.33;;;;;;;9.48;82.03;99665.34;1587671;90;21213;-76
2022/11/25 10:31:42;;;;;;;36.65;25.23;;;;;;;9.40;82.38;99663.53;1586587;90;21264;-76
2022/11/25 10:34:53;;;;;;;30.10;22.13;;;;;;;9.40;82.79;99658.59;1584870;89;21790;-76
2022/11/25 10:38:00;;;;;;;34.78;25.35;;;;;;;9.54;82.35;99661.02;1586885;90;21308;-76
2022/11/25 10:41:05;;;;;;;38.30;24.43;;;;;;;9.64;81.83;99658.34;1583317;90;21236;-75
2022/11/25 10:44:17;;;;;;;34.63;23.45;;;;;;;9.72;82.04;99662.89;1585840;90;21782;-76
2022/11/25 10:48:01;;;;;;;45.00;33.20;;;;;;;9.61;82.41;99659.27;1584242;90;21227;-76
2022/11/25 10:51:18;;;;;;;41.58;31.23;;;;;;;9.55;83.39;99657.25;1569154;91;21863;-75
2022/11/25 10:54:31;;;;;;;31.40;22.32;;;;;;;9.97;81.34;99665.70;1587042;90;21220;-76
2022/11/25 10:57:37;;;;;;;39.15;23.22;;;;;;;9.88;81.60;99662.73;1570293;91;21956;-76
2022/11/25 11:00:45;;;;;;;40.05;25.72;;;;;;;10.15;81.20;99661.20;1587519;90;21256;-76
2022/11/25 11:03:51;;;;;;;44.40;26.02;;;;;;;9.99;81.33;99655.42;1567360;90;21272;-76
2022/11/25 11:06:57;;;;;;;44.77;31.27;;;;;;;10.14;81.46;99660.03;1589680;90;21978;-76
2022/11/25 11:10:17;;;;;;;44.63;28.62;;;;;;;10.10;81.73;99666.91;1590391;90;21233;-77
2022/11/25 11:13:32;;;;;;;;;;;;;;;10.11;81.42;99655.78;1591736;89;21342;-76
2022/11/25 11:16:50;;;;;;;40.12;24.30;;;;;;;10.02;81.91;99656.06;1583455;90;20255;-76
2022/11/25 11:19:55;;;;;;;47.20;26.48;;;;;;;10.05;82.07;99659.28;1565249;91;21255;-76
2022/11/25 11:23:10;;;;;;;42.15;26.85;;;;;;;9.08;86.20;99662.44;1588870;88;21232;-76
2022/11/25 11:26:18;;;;;;;43.92;26.77;;;;;;;9.30;86.05;99660.21;1566130;91;21199;-76
2022/11/25 11:29:23;;;;;;;38.60;24.92;;;;;;;10.01;83.95;99668.04;1609394;87;21246;-76
2022/11/25 11:32:32;;;;;;;43.83;26.77;;;;;;;10.18;82.55;99669.55;1582352;90;21234;-76
2022/11/25 11:36:02;;;;;;;42.58;25.70;;;;;;;10.27;81.46;99669.82;1602727;89;21271;-75
2022/11/25 11:39:13;;;;;;;41.92;24.05;;;;;;;10.03;82.59;99671.45;1607091;88;21224;-75
2022/11/25 11:42:54;;;;;;;35.68;23.25;;;;;;;9.97;82.85;99665.70;1630531;87;21227;-75
2022/11/25 11:46:38;;;;;;;39.00;22.05;;;;;;;10.16;82.19;99667.02;1560899;92;21233;-76
2022/11/25 11:50:15;;;;;;;36.70;22.52;;;;;;;10.16;82.17;99671.13;1541162;93;21789;-76
2022/11/25 11:53:51;;;;;;;32.98;21.50;;;;;;;10.24;82.01;99669.66;1583975;90;21234;-76
2022/11/25 11:57:09;;;;;;;36.58;22.05;;;;;;;10.47;80.96;99675.53;1573947;89;21199;-76
2022/11/25 12:00:21;;;;;;;34.30;21.77;;;;;;;10.14;81.90;99675.06;1558286;92;21209;-76
2022/11/25 12:03:29;;;;;;;35.08;20.97;;;;;;;10.05;82.67;99669.36;1558941;91;21250;-76
2022/11/25 12:06:36;;;;;;;35.52;20.23;;;;;;;9.74;83.31;99675.86;1585485;90;21245;-76
2022/11/25 12:09:46;;;;;;;30.97;18.15;;;;;;;9.90;83.37;99677.03;1586586;90;21847;-75
2022/11/25 12:13:13;;;;;;;28.60;17.45;;;;;;;9.99;83.17;99674.55;1562232;90;21264;-75
2022/11/25 12:20:41;;;;;;;26.73;17.17;;;;;;;10.23;82.10;99681.61;1852640;76;22192;-77
2022/11/25 12:24:11;;;;;;;32.53;16.87;;;;;;;10.11;82.42;99683.63;1757800;80;21871;-75
2022/11/25 12:27:42;;;;;;;24.40;15.70;;;;;;;10.27;82.09;99691.69;1767064;80;21188;-76
2022/11/25 12:31:03;;;;;;;27.37;17.02;;;;;;;10.45;81.51;99684.46;1798789;79;21228;-77
2022/11/25 12:34:18;;;;;;;27.50;17.75;;;;;;;10.41;81.37;99683.14;1753182;80;21161;-76
2022/11/25 12:37:29;;;;;;;38.02;19.95;;;;;;;10.67;80.44;99684.82;1797330;79;21176;-76
2022/11/25 12:40:53;;;;;;;26.73;17.87;;;;;;;10.72;80.16;99678.25;1773033;80;21234;-76
2022/11/25 12:44:04;;;;;;;32.75;19.80;;;;;;;10.81;79.83;99673.52;1784688;79;21175;-77
2022/11/25 12:47:09;;;;;;;31.85;20.05;;;;;;;10.91;79.20;99675.41;1780391;80;21190;-76
2022/11/25 12:50:35;;;;;;;26.68;17.23;;;;;;;10.77;79.77;99674.94;1783806;79;21232;-76
2022/11/25 12:53:51;;;;;;;32.13;18.30;;;;;;;10.51;80.70;99672.75;1711202;82;21185;-76
2022/11/25 12:57:27;;;;;;;28.55;17.48;;;;;;;10.48;81.14;99666.28;1789023;79;21169;-76
2022/11/25 13:01:06;;;;;;;36.08;22.85;;;;;;;10.62;80.79;99671.40;1780407;80;21212;-76
2022/11/25 13:05:01;;;;;;;41.45;23.57;;;;;;;10.73;80.86;99666.30;1785543;79;21231;-76
2022/11/25 13:08:42;;;;;;;35.95;18.10;;;;;;;10.59;81.53;99666.34;1731458;82;21186;-77
2022/11/25 13:12:26;;;;;;;38.25;23.55;;;;;;;10.80;81.17;99669.09;1730114;82;21200;-76
2022/11/25 13:15:36;;;;;;;39.90;21.57;;;;;;;11.05;80.08;99676.92;1752500;80;21190;-75
2022/11/25 13:18:32;;;;;;;32.88;20.10;;;;;;;11.11;79.49;99673.43;1727421;82;21350;-75
2022/11/25 13:21:38;;;;;;;38.13;20.60;;;;;;;11.14;79.64;99681.23;1731591;82;21761;-76
2022/11/25 13:24:48;;;;;;;38.58;20.32;;;;;;;11.04;79.82;99680.71;1734687;81;21196;-76
2022/11/25 13:28:02;;;;;;;38.55;21.90;;;;;;;11.42;78.37;99683.50;1742875;81;21173;-76
2022/11/25 13:31:29;;;;;;;35.10;20.95;;;;;;;11.17;78.42;99683.06;1747348;81;21181;-76
2022/11/25 13:34:39;;;;;;;40.00;22.13;;;;;;;11.75;77.48;99689.78;1725457;82;21178;-76
2022/11/25 13:37:45;;;;;;;37.85;21.40;;;;;;;11.33;77.77;99699.73;1719865;83;21194;-76
2022/11/25 13:40:51;;;;;;;39.85;22.02;;;;;;;11.11;78.50;99692.59;1723921;82;21174;-76
2022/11/25 13:44:13;;;;;;;32.83;20.82;;;;;;;11.40;77.72;99693.82;1705846;82;21153;-76
2022/11/25 13:47:46;;;;;;;33.67;23.12;;;;;;;11.68;76.50;99691.64;1767127;81;21189;-76
2022/11/25 13:50:52;;;;;;;38.40;22.05;;;;;;;11.98;74.83;99693.14;1737969;81;21172;-76
2022/11/25 13:54:04;;;;;;;40.48;24.67;;;;;;;12.13;73.90;99690.28;1718688;83;21194;-76
2022/11/25 13:57:29;;;;;;;40.90;26.23;;;;;;;11.81;74.42;99700.45;1717742;83;21210;-77
2022/11/25 14:00:51;;;;;;;45.75;32.75;;;;;;;12.14;73.63;99712.56;1721059;83;21238;-76
2022/11/25 14:03:59;;;;;;;44.98;28.60;;;;;;;12.10;74.12;99717.28;1748869;82;22343;-76
2022/11/25 14:07:34;;;;;;;44.75;27.20;;;;;;;12.18;73.62;99720.68;1748090;82;21852;-77
2022/11/25 14:11:03;;;;;;;40.98;27.37;;;;;;;11.56;75.21;99723.34;1747772;82;21198;-76
2022/11/25 14:14:16;;;;;;;38.63;24.45;;;;;;;11.69;75.24;99729.78;1748953;82;21293;-78
2022/11/25 14:17:48;;;;;;;47.83;25.43;;;;;;;12.58;72.25;99726.41;1717334;83;21183;-77
2022/11/25 14:21:21;;;;;;;43.50;27.67;;;;;;;12.51;71.71;99720.91;1714213;83;21227;-76
2022/11/25 14:24:51;;;;;;;41.30;25.85;;;;;;;12.56;70.94;99721.64;1711094;84;21251;-76
2022/11/25 14:28:05;;;;;;;36.60;22.35;;;;;;;13.16;68.88;99736.97;1703085;83;21686;-75
2022/11/25 14:31:17;;;;;;;50.00;30.70;;;;;;;13.09;69.09;99732.00;1739328;82;21176;-76
2022/11/25 14:34:27;;;;;;;36.03;23.22;;;;;;;12.64;69.69;99737.09;1725215;83;21206;-75
2022/11/25 14:37:47;;;;;;;80.65;61.60;;;;;;;12.65;70.25;99744.27;1719784;83;21264;-77
2022/11/25 14:41:02;;;;;;;51.30;36.75;;;;;;;12.56;70.76;99744.95;1719967;82;21684;-75
2022/11/25 14:44:25;;;;;;;44.48;24.15;;;;;;;11.42;74.17;99742.37;1740952;82;21240;-75
2022/11/25 14:47:35;;;;;;;49.48;31.10;;;;;;;12.16;73.42;99740.61;1756141;81;21217;-78
2022/11/25 14:50:42;;;;;;;63.55;48.78;;;;;;;11.83;74.14;99741.73;1740113;81;21232;-78
2022/11/25 14:53:56;;;;;;;66.17;44.08;;;;;;;12.09;73.44;99754.81;1739158;82;21192;-78
2022/11/25 14:57:02;;;;;;;45.40;28.15;;;;;;;12.20;72.97;99750.14;1733967;81;21228;-76
2022/11/25 15:00:15;;;;;;;53.05;30.85;;;;;;;12.10;73.26;99750.17;1740519;82;21232;-76
2022/11/25 15:03:13;;;;;;;62.70;37.25;;;;;;;11.98;73.99;99747.96;1740583;82;21173;-77